メインページ
METAR-TAF:

METAR-TAF

空港 :

Terrace, ブリティッシュコロンビア州, カナダ

緯度: 54-28N, 経度: 128-35W, 海抜: 217m

現時点の気象観測

当レポートは29分前の04:12(UTC)に作成
の風 12kt
気温 11°C
湿度 87%
気圧 1007 hPa
視程: 16.1km
高度500ftの雲はほとんどない
高度4000ftの千切れ雲あり
高度7500ftの曇り
弱いにわか雨

METAR: CYXT 210412Z 19012KT 10SM -SHRA FEW005 BKN040 OVC075 11/09 A2973 RMK CF2CU3AC3 SLP071

時間: 21:41 (04:41 UTC)

予報

当レポートは4時間3分前の00:38(UTC)に作成
予報は21日の 01時(UTC)から 21日の 13時(UTC)まで有効
の風 12kt
視程: 10km
高度3000ftの雲は散在している
高度8000ftの千切れ雲あり
21日の 01時(UTC)から 21日の 03時(UTC)まで一時的に
変向風 15kt、最大25ktの突風を伴う
視程: 8.0km
高度3000ftの千切れ雲あり, 積乱雲.
激しい雷雨, 雨, 靄
21日の 0300時(UTC)から
の風 10kt
視程: 10km
高度1500ftの雲は散在している
高度3000ftの曇り
21日の 03時(UTC)から 21日の 13時(UTC)まで一時的に
視程: 4.8km
高度700ftの雲は散在している
高度1500ftの曇り
弱いにわか雨, 靄

TAF: CYXT 210038Z 2101/2113 18012KT P6SM SCT030 BKN080 TEMPO 2101/2103 VRB15G25KT 5SM TSRA BR BKN030CB FM210300 18010KT P6SM SCT015 OVC030 TEMPO 2103/2113 3SM -SHRA BR SCT007 OVC015 RMK NXT FCST BY 210700Z

4,000以上の空港の気象観測と天気予報(METAR報とTAF報)

利用可能な観測所は地図上に黄色い丸と赤い丸で示す。

丸の上にカーソルを重ねると観測所名を参照できる。

次にクリックすると気象観測と天気予報を参照できる。

マップの切り替え:黒色「×」印の緑ボタンをクリックして拡大、「-」印の緑ボタンをクリックして縮小、緑色の三角印をクリックして隣りの地図に切り替え


METAR-TAF: